Time;durP1;ratioP1;P1;durP2;ratioP2;P2;SDS_P1;SDS_P2;PMS_P1;PMS_P2;Temp;Humidity;BMP_temperature;BMP_pressure;BME280_temperature;BME280_humidity;BME280_pressure;Samples;Min_cycle;Max_cycle;Signal;HPM_P1;HPM_P2
2023/04/12 00:00:17;;;;;;;2.53;1.13;;;10.10;73.30;;;;;;5152329;27;20477;-69
2023/04/12 00:02:43;;;;;;;2.10;0.80;;;10.10;72.80;;;;;;5154015;27;20133;-70
2023/04/12 00:05:10;;;;;;;2.83;1.05;;;10.00;72.80;;;;;;5154026;27;20043;-70
2023/04/12 00:07:37;;;;;;;2.00;0.88;;;10.00;73.00;;;;;;5154274;27;20091;-70
2023/04/12 00:10:06;;;;;;;1.30;0.93;;;10.00;73.10;;;;;;5153787;27;20038;-70
2023/04/12 00:12:31;;;;;;;2.65;0.77;;;9.90;73.20;;;;;;5153752;27;20039;-69
2023/04/12 00:14:57;;;;;;;1.73;0.85;;;9.90;73.40;;;;;;5153799;27;20122;-70
2023/04/12 00:17:22;;;;;;;2.40;0.90;;;9.90;73.60;;;;;;5153823;27;20443;-70
2023/04/12 00:19:48;;;;;;;0.82;0.70;;;9.90;73.80;;;;;;5154019;27;20076;-70
2023/04/12 00:22:15;;;;;;;1.73;0.70;;;9.70;73.90;;;;;;5153481;27;20046;-70
2023/04/12 00:24:41;;;;;;;2.25;0.80;;;9.70;74.20;;;;;;5154020;27;20030;-69
2023/04/12 00:27:07;;;;;;;1.95;0.70;;;9.60;74.40;;;;;;5153666;27;20039;-70
2023/04/12 00:29:32;;;;;;;1.73;0.60;;;9.50;74.60;;;;;;5153768;27;20046;-70
2023/04/12 00:32:00;;;;;;;1.70;0.65;;;9.60;74.80;;;;;;5153331;27;20446;-70
2023/04/12 00:34:27;;;;;;;1.05;0.50;;;9.50;74.90;;;;;;5153481;27;20049;-70
2023/04/12 00:36:53;;;;;;;0.65;0.40;;;9.50;75.10;;;;;;5153794;27;20512;-70
2023/04/12 00:39:19;;;;;;;1.27;0.60;;;9.50;75.20;;;;;;5135603;27;20037;-69
2023/04/12 00:41:44;;;;;;;0.40;0.40;;;9.40;75.30;;;;;;5153901;27;20133;-69
2023/04/12 00:44:10;;;;;;;0.70;0.38;;;9.50;75.50;;;;;;5153781;27;20459;-69
2023/04/12 00:46:36;;;;;;;1.58;0.40;;;9.30;75.60;;;;;;5154006;27;20103;-69
2023/04/12 00:49:02;;;;;;;0.40;0.40;;;9.40;75.70;;;;;;5153378;27;20050;-69
2023/04/12 00:51:32;;;;;;;3.03;0.70;;;9.30;75.90;;;;;;5153215;27;20039;-69
2023/04/12 00:53:58;;;;;;;0.70;0.32;;;9.30;76.00;;;;;;5134727;27;20050;-69
2023/04/12 00:56:27;;;;;;;0.70;0.50;;;9.20;76.20;;;;;;5134723;27;20054;-69
2023/04/12 00:58:53;;;;;;;0.70;0.40;;;9.20;76.30;;;;;;5134532;27;20389;-69
2023/04/12 01:01:20;;;;;;;0.65;0.30;;;9.20;76.40;;;;;;5134625;27;20034;-69
2023/04/12 01:03:46;;;;;;;0.60;0.40;;;9.20;76.50;;;;;;5153120;27;20066;-69
2023/04/12 01:06:21;;;;;;;0.45;0.45;;;9.20;76.60;;;;;;5154300;27;20490;-69
2023/04/12 01:08:59;;;;;;;1.05;0.50;;;9.20;76.70;;;;;;5156679;27;20038;-69
2023/04/12 01:11:34;;;;;;;0.40;0.40;;;9.10;76.80;;;;;;5156540;27;20141;-69
2023/04/12 01:14:16;;;;;;;0.43;0.35;;;9.10;76.90;;;;;;5138957;27;20031;-69
2023/04/12 01:16:49;;;;;;;0.52;0.40;;;9.10;77.00;;;;;;5156520;27;20051;-69
2023/04/12 01:19:44;;;;;;;0.30;0.30;;;9.10;77.00;;;;;;5157020;27;20373;-69
2023/04/12 01:22:29;;;;;;;1.25;0.50;;;9.10;77.20;;;;;;5156263;27;20129;-69
2023/04/12 01:25:23;;;;;;;0.52;0.40;;;9.10;77.30;;;;;;5156316;27;20060;-69
2023/04/12 01:27:55;;;;;;;0.40;0.40;;;9.00;77.40;;;;;;5142318;27;20478;-69
2023/04/12 01:30:23;;;;;;;1.08;0.45;;;9.00;77.40;;;;;;5137834;27;20470;-68
2023/04/12 01:32:51;;;;;;;0.40;0.30;;;8.90;77.50;;;;;;5156912;27;20039;-69
2023/04/12 01:35:20;;;;;;;1.08;0.50;;;8.90;77.60;;;;;;5156315;27;20134;-69
2023/04/12 01:37:46;;;;;;;1.08;0.40;;;8.90;77.70;;;;;;5156616;27;20505;-68
2023/04/12 01:40:12;;;;;;;0.93;0.40;;;9.00;77.80;;;;;;5137772;27;20046;-69
2023/04/12 01:42:38;;;;;;;0.30;0.30;;;8.90;77.80;;;;;;5156592;27;20130;-68
2023/04/12 01:45:05;;;;;;;0.88;0.40;;;8.90;78.00;;;;;;5156196;27;20046;-69
2023/04/12 01:47:32;;;;;;;0.20;0.20;;;8.90;78.10;;;;;;5156114;27;20050;-68
2023/04/12 01:50:30;;;;;;;0.47;0.40;;;8.90;78.10;;;;;;5156172;27;20054;-68
2023/04/12 01:53:04;;;;;;;0.30;0.25;;;8.90;78.40;;;;;;5156246;27;20042;-68
2023/04/12 01:55:32;;;;;;;1.17;0.40;;;8.90;78.40;;;;;;5156065;27;20043;-69
2023/04/12 01:58:01;;;;;;;0.32;0.32;;;8.90;78.40;;;;;;5156543;27;20103;-69
2023/04/12 02:00:26;;;;;;;0.30;0.30;;;8.90;78.40;;;;;;5156013;27;20070;-69
2023/04/12 02:02:52;;;;;;;0.10;0.10;;;8.90;78.50;;;;;;5155787;27;20082;-69
2023/04/12 02:05:19;;;;;;;0.47;0.20;;;8.90;78.70;;;;;;5155839;27;20038;-69
2023/04/12 02:07:46;;;;;;;0.65;0.35;;;8.90;78.70;;;;;;5156281;27;20043;-69
2023/04/12 02:10:14;;;;;;;1.45;0.20;;;8.90;78.80;;;;;;5155839;27;20063;-69
2023/04/12 02:12:40;;;;;;;0.20;0.20;;;8.90;78.90;;;;;;5137347;27;20051;-69
2023/04/12 02:15:07;;;;;;;0.20;0.20;;;8.90;78.90;;;;;;5155686;27;20075;-69
2023/04/12 02:17:36;;;;;;;0.43;0.30;;;8.90;79.00;;;;;;5154956;27;20485;-69
2023/04/12 02:20:06;;;;;;;0.35;0.20;;;8.80;79.00;;;;;;5155532;27;20561;-69
2023/04/12 02:22:31;;;;;;;0.70;0.20;;;8.90;79.10;;;;;;5155487;27;20398;-69
2023/04/12 02:24:58;;;;;;;0.38;0.38;;;8.90;79.10;;;;;;5137508;27;20057;-69
2023/04/12 02:27:25;;;;;;;0.20;0.20;;;8.90;79.20;;;;;;5156025;27;20137;-69
2023/04/12 02:29:50;;;;;;;0.10;0.10;;;8.90;79.20;;;;;;5155354;27;20060;-69
2023/04/12 02:32:16;;;;;;;0.20;0.20;;;8.90;79.30;;;;;;5155479;27;20046;-69
2023/04/12 02:34:42;;;;;;;0.20;0.20;;;8.90;79.30;;;;;;5137403;27;20034;-69
2023/04/12 02:37:09;;;;;;;0.20;0.20;;;8.90;79.40;;;;;;5155657;27;20113;-69
2023/04/12 02:39:35;;;;;;;0.40;0.35;;;8.80;79.40;;;;;;5155633;27;20471;-69
2023/04/12 02:42:01;;;;;;;0.20;0.20;;;8.80;79.50;;;;;;5155567;27;20055;-68
2023/04/12 02:44:30;;;;;;;0.32;0.22;;;8.90;79.60;;;;;;5155598;27;20398;-69
2023/04/12 02:46:55;;;;;;;0.32;0.20;;;8.70;79.60;;;;;;5155217;27;20043;-69
2023/04/12 02:49:21;;;;;;;0.15;0.15;;;8.80;79.70;;;;;;5155465;27;20061;-68
2023/04/12 02:51:46;;;;;;;0.25;0.25;;;8.80;79.80;;;;;;5136452;27;20150;-68
2023/04/12 02:54:12;;;;;;;0.22;0.20;;;8.80;79.80;;;;;;5155215;27;20099;-69
2023/04/12 02:56:38;;;;;;;0.28;0.10;;;8.80;79.90;;;;;;5137017;27;20042;-69
2023/04/12 02:59:03;;;;;;;0.20;0.20;;;8.80;79.90;;;;;;5136526;27;20077;-69
2023/04/12 03:01:30;;;;;;;1.25;0.30;;;8.70;79.90;;;;;;5155334;27;20134;-69
2023/04/12 03:03:56;;;;;;;0.57;0.20;;;8.70;79.90;;;;;;5155037;27;20122;-69
2023/04/12 03:06:21;;;;;;;0.20;0.20;;;8.70;80.00;;;;;;5154808;27;20070;-69
2023/04/12 03:08:47;;;;;;;0.20;0.20;;;8.70;80.00;;;;;;5155048;27;20070;-69
2023/04/12 03:11:13;;;;;;;1.27;0.40;;;8.70;80.10;;;;;;5154893;27;20389;-69
2023/04/12 03:13:38;;;;;;;0.20;0.20;;;8.70;80.10;;;;;;5154720;27;20068;-69
2023/04/12 03:16:22;;;;;;;0.88;0.25;;;8.70;80.10;;;;;;5154694;27;20497;-68
2023/04/12 03:18:49;;;;;;;0.43;0.20;;;8.70;80.20;;;;;;5152847;27;20389;-69
2023/04/12 03:21:15;;;;;;;1.00;0.20;;;8.70;80.10;;;;;;5154856;27;20052;-69
2023/04/12 03:23:41;;;;;;;0.43;0.28;;;8.80;80.30;;;;;;5154728;27;20119;-69
2023/04/12 03:26:07;;;;;;;0.98;0.17;;;8.70;80.30;;;;;;5155071;27;20068;-69
2023/04/12 03:28:33;;;;;;;0.20;0.20;;;8.70;80.30;;;;;;5136342;27;20045;-69
2023/04/12 03:30:59;;;;;;;0.35;0.30;;;8.70;80.40;;;;;;5154703;27;20050;-69
2023/04/12 03:33:27;;;;;;;1.00;0.20;;;8.70;80.40;;;;;;5155048;27;20485;-69
2023/04/12 03:35:52;;;;;;;0.28;0.20;;;8.70;80.50;;;;;;5136724;27;20466;-69
2023/04/12 03:38:18;;;;;;;0.20;0.20;;;8.60;80.50;;;;;;5135899;27;20104;-69
2023/04/12 03:40:44;;;;;;;0.47;0.32;;;8.60;80.50;;;;;;5154914;27;20087;-69
2023/04/12 03:43:09;;;;;;;0.45;0.30;;;8.60;80.50;;;;;;5154440;27;20031;-69
2023/04/12 03:45:35;;;;;;;1.17;0.32;;;8.70;80.70;;;;;;5135809;27;20034;-69
2023/04/12 03:48:01;;;;;;;0.22;0.22;;;8.70;80.70;;;;;;5154093;27;20045;-69
2023/04/12 03:50:28;;;;;;;0.90;0.32;;;8.60;80.70;;;;;;5154665;27;20041;-69
2023/04/12 03:52:54;;;;;;;0.70;0.40;;;8.60;80.80;;;;;;5154608;27;20039;-69
2023/04/12 03:55:20;;;;;;;0.30;0.30;;;8.60;80.80;;;;;;5154015;27;20049;-69
2023/04/12 03:57:45;;;;;;;0.28;0.20;;;8.50;80.90;;;;;;5135569;27;20058;-69
2023/04/12 04:00:12;;;;;;;0.35;0.35;;;8.60;80.90;;;;;;5118370;27;20045;-69
2023/04/12 04:02:37;;;;;;;0.32;0.30;;;8.60;81.00;;;;;;5154751;27;20049;-69
2023/04/12 04:05:04;;;;;;;0.73;0.20;;;8.60;81.10;;;;;;5154755;27;20043;-69
2023/04/12 04:07:30;;;;;;;0.20;0.20;;;8.60;81.20;;;;;;5154222;27;20485;-69
2023/04/12 04:09:56;;;;;;;0.40;0.40;;;8.60;81.20;;;;;;5154741;27;20046;-69
2023/04/12 04:12:22;;;;;;;0.55;0.30;;;8.50;81.30;;;;;;5135658;27;20092;-69
2023/04/12 04:14:48;;;;;;;0.20;0.20;;;8.60;81.30;;;;;;5135696;27;20034;-69
2023/04/12 04:17:13;;;;;;;0.20;0.20;;;8.50;81.40;;;;;;5154265;27;20523;-69
2023/04/12 04:19:39;;;;;;;0.32;0.25;;;8.50;81.40;;;;;;5154410;27;20038;-69
2023/04/12 04:22:05;;;;;;;0.20;0.20;;;8.50;82.10;;;;;;5136078;27;20053;-69
2023/04/12 04:24:33;;;;;;;0.20;0.20;;;8.50;81.60;;;;;;5135656;27;20038;-69
2023/04/12 04:26:58;;;;;;;0.20;0.20;;;8.60;81.80;;;;;;5135766;27;20103;-69
2023/04/12 04:29:24;;;;;;;0.35;0.30;;;8.50;81.70;;;;;;5153995;27;20435;-69
2023/04/12 04:31:50;;;;;;;0.13;0.13;;;8.50;81.70;;;;;;5154345;27;20497;-70
2023/04/12 04:34:17;;;;;;;0.35;0.30;;;8.50;81.70;;;;;;5153945;27;20126;-70
2023/04/12 04:36:43;;;;;;;0.35;0.20;;;8.50;81.70;;;;;;5153757;27;20102;-70
2023/04/12 04:39:09;;;;;;;0.20;0.20;;;8.40;81.90;;;;;;5153694;27;20047;-69
2023/04/12 04:41:38;;;;;;;0.38;0.30;;;8.40;81.90;;;;;;5155660;27;20064;-70
2023/04/12 04:44:08;;;;;;;0.35;0.30;;;8.50;82.00;;;;;;5157907;27;20039;-69
2023/04/12 04:46:36;;;;;;;0.20;0.20;;;8.40;82.10;;;;;;5157664;27;20129;-70
2023/04/12 04:49:05;;;;;;;0.20;0.20;;;8.40;82.10;;;;;;5139015;27;20042;-70
2023/04/12 04:51:31;;;;;;;0.30;0.30;;;8.40;82.20;;;;;;5157434;27;20055;-69
2023/04/12 04:53:57;;;;;;;0.20;0.20;;;8.40;82.20;;;;;;5157461;27;20039;-69
2023/04/12 04:56:23;;;;;;;0.20;0.20;;;8.40;82.30;;;;;;5157604;27;20042;-69
2023/04/12 04:58:49;;;;;;;0.15;0.15;;;8.40;82.40;;;;;;5157589;27;20465;-69
2023/04/12 05:01:15;;;;;;;0.93;0.20;;;8.40;82.40;;;;;;5157283;27;20129;-69
2023/04/12 05:03:44;;;;;;;0.15;0.15;;;8.40;82.40;;;;;;5157102;27;20122;-69
2023/04/12 05:06:10;;;;;;;0.32;0.20;;;8.40;82.50;;;;;;5157157;27;20095;-69
2023/04/12 05:08:36;;;;;;;0.13;0.13;;;8.40;82.60;;;;;;5157477;27;20051;-69
2023/04/12 05:11:02;;;;;;;0.20;0.20;;;8.30;82.50;;;;;;5156950;27;20042;-69
2023/04/12 05:13:28;;;;;;;0.10;0.10;;;8.30;82.60;;;;;;5157195;27;20030;-69
2023/04/12 05:15:53;;;;;;;0.30;0.30;;;8.40;82.70;;;;;;5157022;27;20042;-69
2023/04/12 05:18:19;;;;;;;0.28;0.28;;;8.40;82.70;;;;;;5157011;27;20466;-69
2023/04/12 05:20:47;;;;;;;0.35;0.22;;;8.40;82.70;;;;;;5138497;27;20516;-69
2023/04/12 05:23:13;;;;;;;0.93;0.30;;;8.30;82.80;;;;;;5121464;27;20038;-69
2023/04/12 05:25:47;;;;;;;0.17;0.17;;;8.40;82.90;;;;;;5156830;27;20027;-69
2023/04/12 05:28:16;;;;;;;1.08;0.30;;;8.40;82.90;;;;;;5156767;27;20584;-69
2023/04/12 05:30:42;;;;;;;0.20;0.20;;;8.40;82.90;;;;;;5157198;27;20477;-69
2023/04/12 05:33:07;;;;;;;0.43;0.30;;;8.40;82.90;;;;;;5156681;27;20106;-69
2023/04/12 05:35:33;;;;;;;0.40;0.20;;;8.50;83.10;;;;;;5156642;27;20041;-69
2023/04/12 05:37:59;;;;;;;0.28;0.28;;;8.40;83.00;;;;;;5156770;27;20038;-69
2023/04/12 05:40:24;;;;;;;0.20;0.20;;;8.40;83.00;;;;;;5156417;27;20046;-68
2023/04/12 05:42:50;;;;;;;0.20;0.20;;;8.30;83.10;;;;;;5156424;27;20397;-70
2023/04/12 05:45:15;;;;;;;0.35;0.25;;;8.30;83.10;;;;;;5157029;27;20035;-69
2023/04/12 05:47:41;;;;;;;0.20;0.20;;;8.50;83.30;;;;;;5156394;27;20592;-69
2023/04/12 05:50:07;;;;;;;0.20;0.20;;;8.40;83.20;;;;;;5156306;27;20046;-69
2023/04/12 05:52:33;;;;;;;0.43;0.32;;;8.40;83.30;;;;;;5156301;27;20095;-69
2023/04/12 05:54:58;;;;;;;0.22;0.22;;;8.40;83.30;;;;;;5156453;27;20031;-69
2023/04/12 05:57:24;;;;;;;0.60;0.30;;;8.40;83.40;;;;;;5137802;27;20100;-69
2023/04/12 05:59:49;;;;;;;0.20;0.20;;;8.30;83.30;;;;;;5138265;27;20078;-69
2023/04/12 06:02:15;;;;;;;0.47;0.40;;;8.30;83.40;;;;;;5156803;27;20039;-69
2023/04/12 06:04:41;;;;;;;0.30;0.30;;;8.40;83.40;;;;;;5156012;27;20105;-69
2023/04/12 06:07:08;;;;;;;0.25;0.20;;;8.40;83.50;;;;;;5138228;27;20389;-69
2023/04/12 06:09:34;;;;;;;0.20;0.20;;;8.40;83.60;;;;;;5156181;27;20103;-69
2023/04/12 06:12:00;;;;;;;1.00;0.30;;;8.40;83.60;;;;;;5155981;27;20130;-69
2023/04/12 06:14:26;;;;;;;0.28;0.20;;;8.40;83.60;;;;;;5155799;27;20405;-69
2023/04/12 06:16:51;;;;;;;0.52;0.38;;;8.50;83.60;;;;;;5155833;27;20039;-70
2023/04/12 06:19:17;;;;;;;1.05;0.22;;;8.40;83.60;;;;;;5156038;27;20047;-69
2023/04/12 06:21:42;;;;;;;0.40;0.20;;;8.50;83.60;;;;;;5155890;27;20092;-69
2023/04/12 06:24:08;;;;;;;0.40;0.20;;;8.50;83.60;;;;;;5155983;27;20134;-69
2023/04/12 06:26:35;;;;;;;0.45;0.30;;;8.50;83.70;;;;;;5137447;27;20038;-70
2023/04/12 06:29:00;;;;;;;0.28;0.28;;;8.50;83.70;;;;;;5155784;27;20129;-69
2023/04/12 06:31:26;;;;;;;0.20;0.20;;;8.50;83.70;;;;;;5155783;27;20129;-68
2023/04/12 06:33:52;;;;;;;0.30;0.30;;;8.50;83.70;;;;;;5155725;27;20092;-70
2023/04/12 06:36:17;;;;;;;0.35;0.30;;;8.50;83.70;;;;;;5155794;27;20055;-69
2023/04/12 06:38:43;;;;;;;0.30;0.30;;;8.60;83.90;;;;;;5156128;27;20493;-70
2023/04/12 06:41:09;;;;;;;0.30;0.30;;;8.50;83.80;;;;;;5155510;27;20126;-70
2023/04/12 06:43:34;;;;;;;0.20;0.20;;;8.60;83.90;;;;;;5137162;27;20049;-70
2023/04/12 06:46:01;;;;;;;0.20;0.20;;;8.60;83.90;;;;;;5137140;27;20458;-71
2023/04/12 06:48:28;;;;;;;0.40;0.40;;;8.70;84.00;;;;;;5103123;27;20126;-70
2023/04/12 06:50:54;;;;;;;0.40;0.20;;;8.60;83.90;;;;;;5155783;27;20045;-70
2023/04/12 06:53:20;;;;;;;0.38;0.32;;;8.60;84.00;;;;;;5136877;27;20039;-71
2023/04/12 06:55:45;;;;;;;0.45;0.30;;;8.60;84.00;;;;;;5155521;27;20422;-71
2023/04/12 06:58:11;;;;;;;0.28;0.22;;;8.60;84.10;;;;;;5155455;27;20030;-70
2023/04/12 07:00:37;;;;;;;0.20;0.20;;;8.60;84.10;;;;;;5136762;27;20043;-71
2023/04/12 07:03:02;;;;;;;0.20;0.20;;;8.70;84.20;;;;;;5155176;27;20523;-71
2023/04/12 07:05:28;;;;;;;0.20;0.20;;;8.70;84.20;;;;;;5154716;27;20042;-71
2023/04/12 07:07:53;;;;;;;0.20;0.20;;;8.70;84.30;;;;;;5102875;27;20436;-71
2023/04/12 07:10:19;;;;;;;1.23;0.20;;;8.70;84.30;;;;;;5136729;27;20081;-71
2023/04/12 07:12:45;;;;;;;0.40;0.20;;;8.70;84.30;;;;;;5154964;27;20512;-71
2023/04/12 07:15:11;;;;;;;0.30;0.30;;;8.70;84.30;;;;;;5155096;27;20066;-71
2023/04/12 07:17:36;;;;;;;0.25;0.25;;;8.70;84.50;;;;;;5119390;27;20069;-72
2023/04/12 07:20:02;;;;;;;0.20;0.20;;;8.80;84.50;;;;;;5136436;27;20039;-71
2023/04/12 07:22:28;;;;;;;0.57;0.30;;;8.80;84.50;;;;;;5155470;27;20970;-71
2023/04/12 07:24:54;;;;;;;1.00;0.40;;;8.80;84.50;;;;;;5119258;27;20042;-71
2023/04/12 07:27:19;;;;;;;0.20;0.20;;;8.80;84.50;;;;;;5136401;27;20042;-70
2023/04/12 07:29:45;;;;;;;0.70;0.50;;;8.80;84.50;;;;;;5154818;27;20401;-71
2023/04/12 07:32:11;;;;;;;0.85;0.30;;;8.90;84.50;;;;;;5136501;27;20039;-71
2023/04/12 07:34:38;;;;;;;0.50;0.30;;;8.90;84.60;;;;;;5154739;27;20035;-71
2023/04/12 07:37:03;;;;;;;0.65;0.43;;;9.00;84.50;;;;;;5102396;27;20172;-71
2023/04/12 07:39:30;;;;;;;0.20;0.20;;;9.10;84.50;;;;;;5118989;27;20088;-71
2023/04/12 07:41:56;;;;;;;0.65;0.30;;;9.10;84.40;;;;;;5137084;27;20039;-71
2023/04/12 07:44:21;;;;;;;0.63;0.30;;;9.10;84.40;;;;;;5102069;27;20058;-71
2023/04/12 07:46:47;;;;;;;0.30;0.30;;;9.10;84.40;;;;;;5136614;27;20127;-70
2023/04/12 07:49:13;;;;;;;0.43;0.30;;;9.20;84.40;;;;;;5102022;27;20038;-71
2023/04/12 07:51:38;;;;;;;0.30;0.30;;;9.20;84.40;;;;;;5118721;27;20042;-70
2023/04/12 07:54:04;;;;;;;0.20;0.20;;;9.20;84.40;;;;;;5118802;27;20055;-71
2023/04/12 07:56:33;;;;;;;0.55;0.40;;;9.20;84.50;;;;;;5118719;27;20059;-69
2023/04/12 07:58:58;;;;;;;0.63;0.40;;;9.20;84.50;;;;;;5154351;27;20045;-70
2023/04/12 08:01:24;;;;;;;0.40;0.30;;;9.30;84.50;;;;;;5118790;27;20038;-70
2023/04/12 08:03:50;;;;;;;0.38;0.38;;;9.30;84.50;;;;;;5101725;27;20034;-71
2023/04/12 08:06:16;;;;;;;0.57;0.40;;;9.40;84.50;;;;;;5154658;27;20066;-72
2023/04/12 08:08:41;;;;;;;0.57;0.43;;;9.50;84.50;;;;;;5154250;27;20394;-72
2023/04/12 08:11:07;;;;;;;0.40;0.35;;;9.50;84.40;;;;;;5154485;27;20489;-71
2023/04/12 08:13:34;;;;;;;0.63;0.50;;;9.60;84.30;;;;;;5154540;27;20088;-71
2023/04/12 08:16:00;;;;;;;0.95;0.50;;;9.60;84.40;;;;;;5153055;27;20425;-72
2023/04/12 08:18:27;;;;;;;0.40;0.40;;;9.50;84.30;;;;;;5154563;27;20038;-72
2023/04/12 08:20:54;;;;;;;0.30;0.30;;;9.60;84.50;;;;;;5136163;27;20205;-72
2023/04/12 08:23:20;;;;;;;0.73;0.40;;;9.60;84.60;;;;;;5118842;27;20047;-71
2023/04/12 08:25:46;;;;;;;0.35;0.32;;;9.60;84.60;;;;;;5135599;27;20049;-72
2023/04/12 08:28:11;;;;;;;0.70;0.40;;;9.70;84.60;;;;;;5154020;27;20545;-71
2023/04/12 08:30:37;;;;;;;1.80;0.38;;;9.80;84.50;;;;;;5154554;27;20038;-70
2023/04/12 08:33:03;;;;;;;0.20;0.20;;;9.80;84.30;;;;;;5153901;27;20031;-71
2023/04/12 08:35:28;;;;;;;0.32;0.30;;;9.90;84.30;;;;;;5154433;27;20035;-71
2023/04/12 08:37:54;;;;;;;2.45;0.40;;;9.90;84.30;;;;;;5135455;27;20118;-71
2023/04/12 08:40:20;;;;;;;1.00;0.47;;;10.00;84.20;;;;;;5118192;27;20030;-71
2023/04/12 08:42:46;;;;;;;0.30;0.30;;;10.10;84.30;;;;;;5153919;27;20038;-71
2023/04/12 08:45:13;;;;;;;0.82;0.40;;;10.10;84.30;;;;;;5153673;27;20566;-70
2023/04/12 08:47:41;;;;;;;0.25;0.25;;;10.10;84.30;;;;;;5153544;27;20050;-71
2023/04/12 08:50:08;;;;;;;0.85;0.35;;;10.10;84.30;;;;;;5154081;27;20047;-71
2023/04/12 08:52:35;;;;;;;0.90;0.20;;;10.20;84.30;;;;;;5153632;27;20039;-70
2023/04/12 08:55:03;;;;;;;0.20;0.20;;;10.20;84.10;;;;;;5154068;27;20046;-70
2023/04/12 08:57:29;;;;;;;1.05;0.47;;;10.20;84.10;;;;;;5153526;27;20103;-71
2023/04/12 08:59:57;;;;;;;0.43;0.40;;;10.20;84.10;;;;;;5135081;27;20045;-71
2023/04/12 09:02:23;;;;;;;0.40;0.38;;;10.30;84.20;;;;;;5153524;27;20496;-70
2023/04/12 09:04:49;;;;;;;0.68;0.40;;;10.30;84.20;;;;;;5117802;27;20039;-71
2023/04/12 09:07:16;;;;;;;2.08;0.50;;;10.40;84.20;;;;;;5134961;27;20439;-70
2023/04/12 09:09:46;;;;;;;0.63;0.40;;;10.40;84.10;;;;;;5153684;27;20061;-71
2023/04/12 09:12:13;;;;;;;0.30;0.30;;;10.40;84.10;;;;;;5117924;27;20099;-71
2023/04/12 09:14:42;;;;;;;0.25;0.25;;;10.40;84.10;;;;;;5101039;27;20031;-71
2023/04/12 09:17:25;;;;;;;0.73;0.40;;;10.50;84.20;;;;;;5101786;27;20042;-72
2023/04/12 09:19:53;;;;;;;0.32;0.30;;;10.50;84.10;;;;;;5100865;27;20047;-72
2023/04/12 09:22:34;;;;;;;1.35;0.32;;;10.70;84.00;;;;;;5118305;27;20039;-71
2023/04/12 09:25:00;;;;;;;0.40;0.40;;;10.80;83.80;;;;;;5101060;27;20130;-72
2023/04/12 09:27:27;;;;;;;0.80;0.20;;;10.80;83.50;;;;;;5119257;27;20143;-72
2023/04/12 09:30:06;;;;;;;0.40;0.35;;;11.00;83.50;;;;;;5138454;27;20042;-72
2023/04/12 09:32:31;;;;;;;1.67;0.38;;;11.10;83.40;;;;;;5156400;27;20077;-72
2023/04/12 09:35:00;;;;;;;0.35;0.30;;;11.20;83.20;;;;;;5156837;27;20066;-72
2023/04/12 09:37:25;;;;;;;0.50;0.50;;;11.30;83.10;;;;;;5104745;27;20087;-71
2023/04/12 09:40:01;;;;;;;0.65;0.45;;;11.40;82.90;;;;;;5156495;27;20038;-72
2023/04/12 09:42:27;;;;;;;1.10;0.60;;;11.40;82.70;;;;;;5156617;27;20053;-71
2023/04/12 09:44:55;;;;;;;1.20;0.50;;;11.60;82.70;;;;;;5156547;27;20045;-71
2023/04/12 09:47:21;;;;;;;2.03;0.70;;;11.60;82.50;;;;;;5156668;27;20486;-71
2023/04/12 09:49:47;;;;;;;2.13;0.60;;;11.60;82.40;;;;;;5156822;27;20181;-72
2023/04/12 09:52:13;;;;;;;0.70;0.45;;;11.70;82.60;;;;;;5156360;27;20058;-72
2023/04/12 09:54:43;;;;;;;1.58;0.60;;;11.80;82.50;;;;;;5156515;27;20046;-72
2023/04/12 09:57:09;;;;;;;1.20;0.70;;;12.00;82.20;;;;;;5156996;27;20047;-71
2023/04/12 09:59:38;;;;;;;0.82;0.50;;;12.10;82.00;;;;;;5156336;27;20490;-71
2023/04/12 10:02:15;;;;;;;2.38;0.60;;;12.20;82.50;;;;;;5120658;27;20035;-72
2023/04/12 10:04:41;;;;;;;0.98;0.40;;;12.20;81.80;;;;;;5156736;27;20057;-72
2023/04/12 10:07:07;;;;;;;2.97;0.60;;;12.30;81.60;;;;;;5156234;27;20545;-72
2023/04/12 10:09:34;;;;;;;2.17;0.82;;;12.30;81.60;;;;;;5137717;27;20042;-71
2023/04/12 10:12:02;;;;;;;1.60;0.65;;;12.30;81.60;;;;;;5156617;27;20083;-70
2023/04/12 10:14:29;;;;;;;1.38;0.80;;;12.30;81.60;;;;;;5156500;27;20039;-69
2023/04/12 10:17:00;;;;;;;2.05;0.73;;;12.30;81.70;;;;;;5120433;27;20046;-69
2023/04/12 10:19:27;;;;;;;1.85;0.50;;;12.30;81.70;;;;;;5137596;27;20071;-70
2023/04/12 10:21:55;;;;;;;1.08;0.60;;;12.40;81.70;;;;;;5155962;27;20107;-69
2023/04/12 10:24:23;;;;;;;0.45;0.45;;;12.40;81.70;;;;;;5155920;27;20039;-69
2023/04/12 10:26:49;;;;;;;0.70;0.43;;;12.50;81.70;;;;;;5155858;27;20122;-69
2023/04/12 10:29:26;;;;;;;1.42;0.60;;;12.60;81.60;;;;;;5155788;27;20074;-69
2023/04/12 10:31:53;;;;;;;2.88;0.85;;;12.70;81.40;;;;;;5137893;27;20427;-69
2023/04/12 10:34:27;;;;;;;1.75;0.73;;;12.80;81.00;;;;;;5155402;27;20066;-70
2023/04/12 10:37:00;;;;;;;0.75;0.50;;;12.80;80.90;;;;;;5155903;27;20042;-70
2023/04/12 10:39:36;;;;;;;3.28;0.80;;;12.90;81.00;;;;;;5136210;27;20058;-70
2023/04/12 10:42:23;;;;;;;1.60;0.82;;;13.00;80.70;;;;;;5136875;27;20461;-70
2023/04/12 10:44:50;;;;;;;1.30;0.60;;;13.10;80.50;;;;;;5155818;27;20475;-70
2023/04/12 10:47:51;;;;;;;1.45;0.60;;;13.20;80.30;;;;;;5137060;27;20057;-69
2023/04/12 10:50:32;;;;;;;1.10;0.63;;;13.20;80.20;;;;;;5135849;27;20063;-70
2023/04/12 10:53:20;;;;;;;1.25;0.60;;;13.10;80.30;;;;;;5155692;27;20051;-70
2023/04/12 10:55:46;;;;;;;4.10;0.80;;;13.10;80.50;;;;;;5155227;27;20035;-70
2023/04/12 10:58:42;;;;;;;2.25;0.80;;;13.00;80.70;;;;;;5136866;27;20516;-70
2023/04/12 11:01:09;;;;;;;0.85;0.63;;;13.10;80.80;;;;;;5155062;27;20046;-70
2023/04/12 11:03:35;;;;;;;1.90;0.60;;;13.00;80.80;;;;;;5136711;27;20073;-70
2023/04/12 11:06:03;;;;;;;2.15;0.88;;;13.00;80.70;;;;;;5155296;27;20039;-71
2023/04/12 11:08:30;;;;;;;2.58;0.80;;;13.00;80.70;;;;;;5154964;27;20486;-71
2023/04/12 11:11:02;;;;;;;0.80;0.60;;;13.00;80.80;;;;;;5136526;27;20054;-71
2023/04/12 11:13:33;;;;;;;1.67;0.80;;;13.00;80.70;;;;;;5119853;27;20485;-72
2023/04/12 11:16:02;;;;;;;1.07;0.70;;;13.00;80.60;;;;;;5154934;27;20103;-72
2023/04/12 11:18:28;;;;;;;1.80;0.60;;;13.00;80.50;;;;;;5119320;27;20125;-71
2023/04/12 11:20:55;;;;;;;1.38;0.70;;;13.00;80.50;;;;;;5136243;27;20062;-71
2023/04/12 11:23:22;;;;;;;1.55;0.70;;;13.00;80.40;;;;;;5137350;27;20042;-71
2023/04/12 11:25:52;;;;;;;3.13;0.80;;;12.90;80.40;;;;;;5154852;27;20435;-71
2023/04/12 11:28:18;;;;;;;1.88;0.70;;;12.70;80.30;;;;;;5103062;27;20064;-72
2023/04/12 11:30:52;;;;;;;2.95;0.70;;;12.70;80.60;;;;;;5137021;27;20087;-72
2023/04/12 11:33:37;;;;;;;1.83;0.63;;;12.70;80.80;;;;;;5136443;27;20129;-72
2023/04/12 11:36:06;;;;;;;2.40;0.77;;;12.70;81.40;;;;;;5119499;27;20035;-72
2023/04/12 11:38:33;;;;;;;1.60;0.80;;;12.60;80.90;;;;;;5154754;27;20462;-72
2023/04/12 11:40:59;;;;;;;2.20;0.55;;;12.70;81.00;;;;;;5154655;27;20058;-73
2023/04/12 11:43:25;;;;;;;2.50;0.60;;;12.70;80.90;;;;;;5136208;27;20039;-72
2023/04/12 11:45:58;;;;;;;1.58;0.43;;;12.80;80.80;;;;;;5135988;27;20031;-72
2023/04/12 11:48:25;;;;;;;1.30;0.82;;;12.90;80.40;;;;;;5153631;27;20042;-72
2023/04/12 11:50:51;;;;;;;1.17;0.60;;;13.00;80.20;;;;;;5136505;27;20417;-73
2023/04/12 11:53:18;;;;;;;1.33;0.60;;;13.00;80.00;;;;;;5154888;27;20050;-72
2023/04/12 11:55:57;;;;;;;1.83;0.50;;;13.20;79.80;;;;;;5155005;27;20034;-71
2023/04/12 11:58:26;;;;;;;1.80;0.65;;;13.20;79.40;;;;;;5136558;27;20031;-71
2023/04/12 12:00:53;;;;;;;0.98;0.55;;;13.10;79.30;;;;;;5154300;27;20073;-71
2023/04/12 12:03:19;;;;;;;1.58;0.77;;;13.00;79.30;;;;;;5154378;27;20042;-71
2023/04/12 12:05:45;;;;;;;2.15;1.02;;;13.10;79.30;;;;;;5154412;27;20058;-70
2023/04/12 12:08:12;;;;;;;1.85;0.80;;;13.10;79.30;;;;;;5154329;27;20102;-71
2023/04/12 12:10:39;;;;;;;1.40;0.73;;;13.10;79.00;;;;;;5154260;27;20130;-71
2023/04/12 12:13:12;;;;;;;2.78;0.82;;;13.00;78.70;;;;;;5154088;27;20045;-71
2023/04/12 12:15:39;;;;;;;2.03;0.90;;;12.90;78.70;;;;;;5154181;27;20084;-71
2023/04/12 12:18:08;;;;;;;1.67;0.70;;;12.80;79.00;;;;;;5153896;27;20125;-71
2023/04/12 12:20:48;;;;;;;2.38;0.85;;;12.70;79.10;;;;;;5154115;27;20042;-71
2023/04/12 12:23:27;;;;;;;1.20;0.60;;;12.70;79.20;;;;;;5154144;27;20250;-72
2023/04/12 12:25:56;;;;;;;1.00;0.60;;;12.70;79.30;;;;;;5153951;27;20043;-71
2023/04/12 12:28:23;;;;;;;1.33;0.60;;;12.70;79.10;;;;;;5154582;27;20042;-72
2023/04/12 12:30:54;;;;;;;1.65;0.45;;;12.80;78.80;;;;;;5135449;27;20500;-72
2023/04/12 12:33:20;;;;;;;2.40;0.57;;;12.90;78.60;;;;;;5153914;27;20066;-72
2023/04/12 12:35:46;;;;;;;2.05;0.68;;;13.10;78.30;;;;;;5153901;27;20081;-73
2023/04/12 12:38:11;;;;;;;3.40;0.60;;;13.20;77.90;;;;;;5153996;27;20042;-72
2023/04/12 12:40:37;;;;;;;2.45;0.80;;;13.30;77.60;;;;;;5154222;27;20541;-73
2023/04/12 12:43:05;;;;;;;3.17;0.65;;;13.40;77.00;;;;;;5153706;27;20041;-71
2023/04/12 12:45:32;;;;;;;2.45;0.70;;;13.50;76.70;;;;;;5135639;27;20042;-72
2023/04/12 12:48:01;;;;;;;1.33;0.82;;;13.80;76.40;;;;;;5153751;27;20477;-72
2023/04/12 12:50:31;;;;;;;4.07;0.90;;;13.90;75.70;;;;;;5118753;27;20157;-72
2023/04/12 12:52:59;;;;;;;1.45;0.68;;;14.10;75.10;;;;;;5153488;27;20103;-70
2023/04/12 12:55:25;;;;;;;1.65;0.73;;;14.10;74.70;;;;;;5154352;27;20031;-71